Time;durP1;ratioP1;P1;durP2;ratioP2;P2;SDS_P1;SDS_P2;PMS_P1;PMS_P2;Temp;Humidity;BMP_temperature;BMP_pressure;BME280_temperature;BME280_humidity;BME280_pressure;Samples;Min_cycle;Max_cycle;Signal;HPM_P1;HPM_P2
2023/06/23 00:01:45;;;;;;;2.70;1.20;;;;;;;22.99;56.77;101652.81;7359642;19;20857;-61
2023/06/23 00:04:13;;;;;;;2.60;1.13;;;;;;;22.99;56.81;101650.94;7360278;19;21844;-62
2023/06/23 00:06:40;;;;;;;4.07;1.10;;;;;;;23.00;57.64;101649.91;7358565;19;20082;-61
2023/06/23 00:09:13;;;;;;;2.50;0.90;;;;;;;22.99;55.82;101650.13;7361086;19;20053;-61
2023/06/23 00:11:42;;;;;;;3.75;1.35;;;;;;;22.96;55.66;101639.78;7358488;19;20055;-61
2023/06/23 00:14:11;;;;;;;5.15;1.20;;;;;;;22.93;55.03;101645.59;7357722;19;20026;-58
2023/06/23 00:16:39;;;;;;;2.10;0.95;;;;;;;22.89;54.45;101650.59;7357972;19;20712;-60
2023/06/23 00:19:06;;;;;;;2.92;0.93;;;;;;;22.86;54.12;101658.22;7358940;19;20014;-61
2023/06/23 00:21:34;;;;;;;3.65;1.02;;;;;;;22.83;54.06;101661.34;7359792;19;20015;-61
2023/06/23 00:24:01;;;;;;;3.78;1.20;;;;;;;22.83;54.08;101667.53;7356896;19;20022;-60
2023/06/23 00:26:29;;;;;;;2.78;1.08;;;;;;;22.84;54.14;101669.19;7358415;19;20801;-60
2023/06/23 00:28:56;;;;;;;4.20;1.27;;;;;;;22.82;nan;101671.25;7359443;19;20461;-61
2023/06/23 00:31:24;;;;;;;5.78;1.20;;;;;;;22.82;54.68;101670.41;7357579;19;20019;-62
2023/06/23 00:33:52;;;;;;;4.15;1.05;;;;;;;22.80;54.24;101684.09;7362883;19;20019;-63
2023/06/23 00:36:19;;;;;;;3.42;1.05;;;;;;;22.80;54.25;101680.56;7359531;19;20015;-61
2023/06/23 00:38:47;;;;;;;2.85;0.80;;;;;;;22.80;53.67;101670.66;7361648;19;20055;-60
2023/06/23 00:41:14;;;;;;;3.60;0.98;;;;;;;22.80;53.48;101684.09;7359235;19;20094;-60
2023/06/23 00:43:49;;;;;;;3.20;1.05;;;;;;;22.82;54.56;101689.22;7356454;19;20483;-60
2023/06/23 00:46:20;;;;;;;2.60;1.02;;;;;;;22.84;53.87;101692.53;7356871;19;20021;-61
2023/06/23 00:48:48;;;;;;;2.67;0.80;;;;;;;22.82;54.10;101687.34;7364725;19;20051;-61
2023/06/23 00:51:16;;;;;;;4.10;1.10;;;;;;;22.81;54.46;101677.66;7364048;19;20014;-60
2023/06/23 00:53:48;;;;;;;2.95;0.90;;;;;;;22.84;53.60;101687.97;7366529;19;20022;-61
2023/06/23 00:56:17;;;;;;;3.55;1.00;;;;;;;22.84;53.31;101687.16;7364866;19;20019;-61
2023/06/23 00:58:46;;;;;;;2.15;0.70;;;;;;;22.83;53.39;101683.63;7367160;19;20014;-61
2023/06/23 01:01:14;;;;;;;3.08;0.90;;;;;;;22.83;52.28;101693.56;7363400;19;20019;-61
2023/06/23 01:03:41;;;;;;;4.68;1.05;;;;;;;22.80;52.70;101689.44;7366243;19;20121;-61
2023/06/23 01:06:24;;;;;;;3.03;1.00;;;;;;;22.76;52.88;101690.88;7364500;19;20033;-61
2023/06/23 01:09:11;;;;;;;2.30;0.80;;;;;;;22.73;52.85;101696.69;7364316;19;20049;-62
2023/06/23 01:11:53;;;;;;;4.15;1.00;;;;;;;22.70;52.64;101696.25;7363610;19;20019;-61
2023/06/23 01:14:35;;;;;;;3.25;0.70;;;;;;;22.68;53.11;101701.00;7359329;19;20026;-60
2023/06/23 01:17:13;;;;;;;2.03;0.75;;;;;;;22.65;53.41;101699.59;7359672;19;20641;-60
2023/06/23 01:20:12;;;;;;;1.83;0.70;;;;;;;22.61;53.80;101701.00;7365777;19;20037;-63
2023/06/23 01:22:52;;;;;;;3.33;0.75;;;;;;;22.59;54.01;101697.72;7366073;19;20106;-60
2023/06/23 01:25:34;;;;;;;2.20;1.00;;;;;;;22.58;54.04;101699.59;7364995;19;20526;-60
2023/06/23 01:28:03;;;;;;;;;;;;;;;22.56;54.97;101704.31;7366205;19;20576;-61
2023/06/23 01:30:32;;;;;;;2.83;0.68;;;;;;;22.52;54.06;101703.09;7361717;19;19930;-61
2023/06/23 01:33:07;;;;;;;2.30;0.93;;;;;;;22.50;54.08;101705.16;7362315;19;20596;-61
2023/06/23 01:35:42;;;;;;;3.15;1.08;;;;;;;22.46;53.83;101700.44;7364115;19;20011;-61
2023/06/23 01:38:19;;;;;;;2.53;0.77;;;;;;;22.43;54.16;101696.31;7367551;19;20039;-61
2023/06/23 01:40:52;;;;;;;4.70;0.88;;;;;;;22.43;55.01;101704.38;7363248;19;20057;-61
2023/06/23 01:43:29;;;;;;;2.03;0.90;;;;;;;22.44;55.68;101697.16;7362666;19;20018;-61
2023/06/23 01:46:03;;;;;;;2.13;0.80;;;;;;;22.41;54.88;101698.38;7361640;19;21742;-60
2023/06/23 01:48:34;;;;;;;2.28;0.80;;;;;;;22.39;55.21;101703.16;7363279;19;20014;-61
2023/06/23 01:51:03;;;;;;;2.00;0.73;;;;;;;22.36;55.85;101705.41;7361215;19;20395;-60
2023/06/23 01:53:31;;;;;;;3.53;0.90;;;;;;;22.32;55.55;101702.31;7363484;19;20040;-61
2023/06/23 01:56:03;;;;;;;2.78;1.00;;;;;;;22.31;56.84;101703.34;7363768;19;20018;-61
2023/06/23 01:58:33;;;;;;;2.30;0.90;;;;;;;22.31;57.31;101713.25;7362310;19;20014;-60
2023/06/23 02:01:01;;;;;;;2.00;0.90;;;;;;;22.32;56.35;101712.22;7362154;19;20046;-65
2023/06/23 02:03:30;;;;;;;3.03;0.80;;;;;;;22.30;55.89;101716.97;7363962;19;20022;-60
2023/06/23 02:05:59;;;;;;;2.67;1.00;;;;;;;22.29;55.99;101708.09;7362361;19;20013;-60
2023/06/23 02:08:28;;;;;;;3.67;1.35;;;;;;;22.31;56.83;101707.88;7360860;19;20011;-61
2023/06/23 02:10:57;;;;;;;2.08;0.88;;;;;;;22.30;56.10;101703.56;7362191;19;20374;-59
2023/06/23 02:13:26;;;;;;;2.75;0.80;;;;;;;22.31;54.88;101711.38;7364327;19;20011;-61
2023/06/23 02:15:55;;;;;;;2.42;0.85;;;;;;;22.29;55.03;101712.66;7358970;19;20018;-60
2023/06/23 02:18:24;;;;;;;2.95;0.80;;;;;;;22.27;55.01;101712.03;7362037;19;20022;-60
2023/06/23 02:20:54;;;;;;;2.30;0.80;;;;;;;22.27;55.07;101712.03;7363050;19;20015;-61
2023/06/23 02:23:23;;;;;;;2.15;0.63;;;;;;;22.29;55.37;101710.78;7362359;19;20007;-60
2023/06/23 02:25:51;;;;;;;3.97;1.10;;;;;;;22.29;55.57;101704.59;7360346;19;20065;-61
2023/06/23 02:28:19;;;;;;;2.17;0.60;;;;;;;22.27;54.88;101706.66;7363682;19;20011;-60
2023/06/23 02:30:47;;;;;;;3.47;0.80;;;;;;;22.22;54.46;101706.44;7356885;19;20026;-60
2023/06/23 02:33:14;;;;;;;2.35;0.82;;;;;;;22.18;54.23;101717.59;7362988;19;20209;-61
2023/06/23 02:35:42;;;;;;;2.15;0.75;;;;;;;22.19;56.74;101723.81;7361412;19;20059;-60
2023/06/23 02:38:12;;;;;;;3.20;0.90;;;;;;;22.18;54.92;101730.19;7361527;19;20023;-60
2023/06/23 02:40:42;;;;;;;1.65;0.70;;;;;;;22.16;54.47;101727.69;7361815;19;20600;-60
2023/06/23 02:43:24;;;;;;;3.80;0.90;;;;;;;22.15;55.11;101726.03;7364176;19;20014;-60
2023/06/23 02:45:55;;;;;;;3.83;0.93;;;;;;;22.13;54.73;101716.56;7357826;19;20063;-61
2023/06/23 02:48:27;;;;;;;4.13;0.80;;;;;;;22.11;55.29;101729.34;7360480;19;20514;-60
2023/06/23 02:50:58;;;;;;;2.28;0.70;;;;;;;22.10;55.25;101719.66;7359658;19;20011;-62
2023/06/23 02:53:30;;;;;;;4.18;0.80;;;;;;;22.07;55.33;101728.94;7362247;19;20006;-60
2023/06/23 02:56:06;;;;;;;2.35;0.93;;;;;;;22.06;55.62;101727.28;7362536;19;20656;-61
2023/06/23 02:58:34;;;;;;;2.38;0.75;;;;;;;22.05;55.91;101736.34;7361438;19;20019;-61
2023/06/23 03:01:04;;;;;;;2.58;0.90;;;;;;;22.03;56.02;101734.94;7359595;19;20620;-61
2023/06/23 03:03:34;;;;;;;2.25;0.90;;;;;;;22.04;56.09;101733.91;7363866;19;20018;-61
2023/06/23 03:06:02;;;;;;;2.20;0.98;;;;;;;22.03;56.51;101734.94;7362846;19;20371;-61
2023/06/23 03:08:30;;;;;;;4.47;1.00;;;;;;;22.00;56.56;101744.19;7363741;19;20014;-62
2023/06/23 03:10:57;;;;;;;1.83;0.82;;;;;;;21.97;56.89;101733.06;7361257;19;20018;-61
2023/06/23 03:13:24;;;;;;;5.97;1.00;;;;;;;21.95;57.38;101743.16;7361683;19;20012;-61
2023/06/23 03:15:58;;;;;;;3.78;1.08;;;;;;;21.95;57.36;101741.31;7359465;19;21114;-60
2023/06/23 03:18:32;;;;;;;2.45;1.08;;;;;;;21.94;57.07;101745.00;7361609;19;20006;-60
2023/06/23 03:21:03;;;;;;;1.75;0.80;;;;;;;21.94;56.88;101738.84;7361627;19;20621;-60
2023/06/23 03:23:35;;;;;;;3.10;0.85;;;;;;;21.91;57.22;101742.72;7363188;19;20018;-60
2023/06/23 03:26:05;;;;;;;2.90;1.30;;;;;;;21.88;57.63;101736.94;7358979;19;20475;-61
2023/06/23 03:28:36;;;;;;;5.70;1.30;;;;;;;21.88;59.35;101731.59;7355939;19;20471;-61
2023/06/23 03:31:12;;;;;;;3.47;1.17;;;;;;;21.88;58.25;101736.94;7355312;19;20139;-60
2023/06/23 03:33:42;;;;;;;3.28;1.27;;;;;;;21.87;58.22;101743.34;7361868;19;20010;-61
2023/06/23 03:36:20;;;;;;;3.20;1.20;;;;;;;21.84;58.54;101744.56;7360315;19;20010;-60
2023/06/23 03:39:02;;;;;;;5.45;1.65;;;;;;;21.82;58.99;101737.75;7359661;19;20015;-60
2023/06/23 03:41:31;;;;;;;4.13;1.08;;;;;;;21.79;59.34;101747.00;7362874;19;20023;-60
2023/06/23 03:44:07;;;;;;;2.83;1.10;;;;;;;21.82;60.82;101746.63;7359794;19;20010;-60
2023/06/23 03:46:51;;;;;;;3.40;1.30;;;;;;;21.81;60.08;101750.34;7357902;19;21060;-61
2023/06/23 03:49:22;;;;;;;2.55;1.02;;;;;;;21.79;59.26;101760.41;7359777;19;20025;-60
2023/06/23 03:51:53;;;;;;;4.90;1.35;;;;;;;21.76;59.31;101771.56;7360319;19;21730;-60
2023/06/23 03:54:22;;;;;;;3.22;1.10;;;;;;;21.75;59.48;101778.75;7358271;19;20034;-61
2023/06/23 03:56:53;;;;;;;3.03;1.20;;;;;;;21.74;59.99;101785.16;7361362;19;20015;-60
2023/06/23 03:59:24;;;;;;;2.88;1.08;;;;;;;21.73;60.42;101790.72;7358062;19;20011;-61
2023/06/23 04:01:53;;;;;;;4.80;1.40;;;;;;;21.71;60.41;101790.09;7360766;19;20021;-60
2023/06/23 04:04:22;;;;;;;5.60;1.05;;;;;;;21.71;60.96;101790.91;7359662;19;20043;-61
2023/06/23 04:06:53;;;;;;;3.42;1.27;;;;;;;21.68;60.97;101783.31;7358891;19;20059;-59
2023/06/23 04:09:23;;;;;;;4.20;1.30;;;;;;;21.67;61.75;101795.03;7360534;19;20015;-60
2023/06/23 04:11:53;;;;;;;4.22;1.40;;;;;;;21.68;62.82;101793.19;7362562;19;20965;-60
2023/06/23 04:14:22;;;;;;;3.53;1.52;;;;;;;21.69;63.88;101800.19;7359050;19;20150;-61
2023/06/23 04:16:51;;;;;;;5.55;1.75;;;;;;;21.66;64.14;101796.06;7359269;19;20015;-60
2023/06/23 04:19:25;;;;;;;3.72;1.52;;;;;;;21.65;65.25;101804.28;7357511;19;20638;-61
2023/06/23 04:21:54;;;;;;;4.93;2.10;;;;;;;21.64;65.75;101806.13;7361965;19;20070;-61
2023/06/23 04:24:23;;;;;;;3.42;1.60;;;;;;;21.66;66.36;101798.75;7366950;19;20018;-60
2023/06/23 04:26:54;;;;;;;4.35;1.80;;;;;;;21.65;66.57;101797.09;7366798;19;20018;-60
2023/06/23 04:29:24;;;;;;;6.75;1.73;;;;;;;21.64;67.04;101795.44;7361344;19;20057;-61
2023/06/23 04:31:54;;;;;;;4.97;2.10;;;;;;;21.65;67.96;101797.09;7367395;19;20026;-60
2023/06/23 04:34:22;;;;;;;5.15;2.10;;;;;;;21.65;68.03;101799.75;7368219;19;20014;-60
2023/06/23 04:36:59;;;;;;;3.95;1.80;;;;;;;21.66;67.81;101797.91;7367557;19;20014;-60
2023/06/23 04:39:31;;;;;;;5.70;2.28;;;;;;;21.64;68.26;101790.06;7368393;19;20010;-61
2023/06/23 04:42:04;;;;;;;3.83;2.07;;;;;;;21.63;68.26;101796.47;7365957;19;20051;-61
2023/06/23 04:44:41;;;;;;;8.93;3.08;;;;;;;21.62;69.62;101800.19;7365099;19;20019;-61
2023/06/23 04:47:12;;;;;;;7.82;3.17;;;;;;;21.57;70.13;101785.72;7363114;19;20014;-60
2023/06/23 04:49:41;;;;;;;4.93;2.10;;;;;;;21.57;70.72;101793.78;7365010;19;20037;-60
2023/06/23 04:52:14;;;;;;;5.82;2.53;;;;;;;21.55;70.55;101793.13;7365613;19;20014;-61
2023/06/23 04:54:44;;;;;;;4.85;1.92;;;;;;;21.55;70.81;101793.13;7366004;19;20021;-61
2023/06/23 04:57:16;;;;;;;8.15;2.50;;;;;;;21.53;71.25;101800.56;7363867;19;20483;-61
2023/06/23 04:59:51;;;;;;;5.28;2.50;;;;;;;21.54;72.02;101794.97;7363797;19;20514;-60
2023/06/23 05:02:21;;;;;;;4.90;2.50;;;;;;;21.56;72.23;101789.44;7365697;19;20050;-61
2023/06/23 05:04:50;;;;;;;6.55;2.72;;;;;;;21.59;72.44;101792.53;7366413;19;20375;-60
2023/06/23 05:07:23;;;;;;;6.10;2.65;;;;;;;21.61;72.64;101808.41;7365762;19;20099;-61
2023/06/23 05:09:52;;;;;;;6.20;2.47;;;;;;;21.62;73.33;101810.06;7365173;19;20900;-62
2023/06/23 05:12:21;;;;;;;7.72;2.75;;;;;;;21.60;73.41;101820.97;7366115;19;20377;-61
2023/06/23 05:14:50;;;;;;;7.88;2.42;;;;;;;21.60;73.95;101818.28;7361269;19;20021;-61
2023/06/23 05:17:18;;;;;;;6.15;2.85;;;;;;;21.62;74.39;101820.78;7360445;19;20053;-61
2023/06/23 05:19:47;;;;;;;8.38;3.30;;;;;;;21.65;75.08;101831.09;7361763;19;20041;-61
2023/06/23 05:22:18;;;;;;;7.40;2.88;;;;;;;21.67;75.59;101842.44;7365838;19;20073;-61
2023/06/23 05:24:54;;;;;;;5.40;2.78;;;;;;;21.70;75.39;101844.72;7362712;19;20025;-60
2023/06/23 05:27:24;;;;;;;7.32;3.00;;;;;;;21.70;75.54;101842.84;7363118;19;20041;-61
2023/06/23 05:29:56;;;;;;;8.57;3.72;;;;;;;21.72;76.25;101829.25;7361959;19;20015;-60
2023/06/23 05:32:26;;;;;;;7.72;3.30;;;;;;;21.76;76.78;101843.91;7364407;19;20010;-61
2023/06/23 05:34:57;;;;;;;6.70;3.60;;;;;;;21.79;76.15;101843.50;7364334;19;20018;-60
2023/06/23 05:37:27;;;;;;;9.10;3.87;;;;;;;21.82;76.36;101847.66;7364988;19;20022;-63
2023/06/23 05:39:57;;;;;;;6.38;3.55;;;;;;;21.86;76.94;101844.34;7362281;19;20103;-61
2023/06/23 05:42:26;;;;;;;7.78;3.35;;;;;;;21.84;76.75;101843.72;7364604;19;20010;-61
2023/06/23 05:44:54;;;;;;;7.28;3.55;;;;;;;21.85;77.10;101845.38;7362315;19;20011;-63
2023/06/23 05:47:25;;;;;;;6.40;3.65;;;;;;;21.85;77.42;101839.19;7363375;19;20010;-61
2023/06/23 05:49:58;;;;;;;8.38;4.25;;;;;;;21.86;78.07;101846.19;7362898;19;20110;-60
2023/06/23 05:52:27;;;;;;;8.20;3.20;;;;;;;21.86;78.54;101838.16;7363128;19;20270;-61
2023/06/23 05:54:56;;;;;;;8.40;3.67;;;;;;;21.83;78.49;101841.25;7362962;19;20720;-61
2023/06/23 05:57:30;;;;;;;8.38;3.92;;;;;;;21.82;78.50;101840.44;7364758;19;20018;-62
2023/06/23 06:00:04;;;;;;;8.43;4.07;;;;;;;21.83;78.67;101847.44;7359764;19;20026;-64
2023/06/23 06:02:35;;;;;;;7.50;3.47;;;;;;;21.83;78.75;101850.13;7363273;19;20085;-60
2023/06/23 06:05:07;;;;;;;6.40;3.30;;;;;;;21.90;78.83;101872.41;7366739;19;20795;-61
2023/06/23 06:07:38;;;;;;;7.70;3.70;;;;;;;21.96;78.95;101877.00;7363145;19;20007;-60
2023/06/23 06:10:08;;;;;;;7.18;3.72;;;;;;;22.00;78.68;101862.16;7364954;19;20026;-60
2023/06/23 06:12:38;;;;;;;7.97;3.92;;;;;;;22.00;78.48;101864.00;7361118;19;20014;-62
2023/06/23 06:15:08;;;;;;;7.55;3.83;;;;;;;21.97;78.95;101853.69;7356822;19;20039;-60
2023/06/23 06:17:39;;;;;;;9.30;3.88;;;;;;;21.93;78.70;101861.28;7362054;19;20022;-61
2023/06/23 06:20:09;;;;;;;8.38;3.92;;;;;;;21.92;79.33;101861.50;7364079;19;20082;-59
2023/06/23 06:22:39;;;;;;;6.80;3.95;;;;;;;21.93;79.56;101850.56;7362726;19;20038;-61
2023/06/23 06:25:11;;;;;;;7.80;4.28;;;;;;;21.94;79.04;101859.47;7362465;19;20321;-61
2023/06/23 06:27:41;;;;;;;8.45;4.20;;;;;;;21.95;78.37;101869.16;7360774;19;20022;-61
2023/06/23 06:30:11;;;;;;;7.00;3.60;;;;;;;21.94;78.85;101864.84;7359629;19;20014;-60
2023/06/23 06:32:42;;;;;;;9.43;4.70;;;;;;;21.96;78.81;101863.59;7358642;19;20832;-61
2023/06/23 06:35:11;;;;;;;8.75;4.07;;;;;;;22.00;78.31;101856.78;7360249;19;20018;-61
2023/06/23 06:37:43;;;;;;;7.45;3.97;;;;;;;22.04;79.14;101852.69;7360710;19;20651;-61
2023/06/23 06:40:12;;;;;;;7.57;3.90;;;;;;;22.10;78.89;101864.44;7362087;19;20023;-61
2023/06/23 06:42:39;;;;;;;8.25;4.38;;;;;;;22.13;78.58;101861.38;7363154;19;20029;-60
2023/06/23 06:45:08;;;;;;;6.88;3.95;;;;;;;22.13;78.45;101854.16;7356285;19;20475;-61
2023/06/23 06:47:43;;;;;;;8.00;4.25;;;;;;;22.16;78.60;101860.94;7361509;19;20011;-60
2023/06/23 06:50:13;;;;;;;8.75;5.38;;;;;;;22.20;78.59;101861.41;7361298;19;20018;-60
2023/06/23 06:52:43;;;;;;;11.27;4.35;;;;;;;22.27;78.81;101870.25;7362980;19;20015;-60
2023/06/23 06:55:15;;;;;;;9.60;4.50;;;;;;;22.30;78.30;101876.03;7361983;19;21749;-62
2023/06/23 06:57:44;;;;;;;7.57;4.05;;;;;;;22.33;77.98;101878.31;7362971;19;20018;-62
2023/06/23 07:00:12;;;;;;;7.13;3.88;;;;;;;22.38;77.67;101883.91;7361099;19;20014;-61
2023/06/23 07:02:40;;;;;;;6.93;3.63;;;;;;;22.42;77.61;101882.44;7356918;19;20034;-60
2023/06/23 07:05:08;;;;;;;7.38;3.90;;;;;;;22.46;77.43;101882.88;7358269;19;20041;-63
2023/06/23 07:07:36;;;;;;;6.43;3.30;;;;;;;22.52;76.83;101885.56;7361477;19;20929;-62
2023/06/23 07:10:05;;;;;;;6.57;3.70;;;;;;;22.56;75.70;101886.78;7359332;19;20601;-60
2023/06/23 07:12:32;;;;;;;6.45;3.40;;;;;;;22.60;75.31;101890.72;7363693;19;20142;-61
2023/06/23 07:15:00;;;;;;;7.15;3.90;;;;;;;22.66;75.11;101889.06;7354772;19;20134;-62
2023/06/23 07:17:27;;;;;;;12.75;3.35;;;;;;;22.71;74.81;101885.78;7359119;19;20030;-60
2023/06/23 07:19:55;;;;;;;10.13;3.78;;;;;;;22.75;73.56;101890.56;7361706;19;20062;-61
2023/06/23 07:22:22;;;;;;;11.55;4.03;;;;;;;22.81;73.52;101897.78;7357455;19;20025;-60
2023/06/23 07:24:50;;;;;;;14.02;3.78;;;;;;;22.89;73.84;101902.94;7360970;19;20033;-61
2023/06/23 07:27:18;;;;;;;7.35;3.50;;;;;;;22.92;73.85;101907.06;7359247;19;20699;-62
2023/06/23 07:29:46;;;;;;;6.18;3.13;;;;;;;22.95;73.41;101903.97;7358831;19;20785;-61
2023/06/23 07:32:14;;;;;;;6.85;3.30;;;;;;;23.00;73.59;101910.38;7359667;19;20014;-62
2023/06/23 07:34:42;;;;;;;11.60;3.55;;;;;;;23.00;73.53;101905.00;7360483;19;21765;-60
2023/06/23 07:37:09;;;;;;;7.00;3.65;;;;;;;23.02;73.32;101905.63;7359379;19;20978;-62
2023/06/23 07:39:37;;;;;;;10.30;3.63;;;;;;;22.97;73.52;101907.25;7357947;19;20019;-61
2023/06/23 07:42:05;;;;;;;8.68;3.53;;;;;;;22.94;73.20;101913.06;7360506;19;20018;-61
2023/06/23 07:44:33;;;;;;;6.15;3.20;;;;;;;23.06;73.32;101911.38;7355535;19;20688;-61
2023/06/23 07:47:00;;;;;;;15.45;3.50;;;;;;;23.24;72.72;101910.75;7358749;19;21771;-62
2023/06/23 07:49:27;;;;;;;9.40;3.67;;;;;;;23.54;71.57;101909.25;7360923;19;20086;-61
2023/06/23 07:52:00;;;;;;;6.68;3.78;;;;;;;23.75;70.12;101919.75;7360481;19;20741;-62
2023/06/23 07:54:29;;;;;;;5.90;3.33;;;;;;;23.94;69.67;101926.06;7359492;19;20021;-60
2023/06/23 07:56:57;;;;;;;7.18;3.25;;;;;;;23.96;68.84;101917.78;7362718;19;20494;-61
2023/06/23 07:59:25;;;;;;;8.70;4.25;;;;;;;23.97;70.03;101924.81;7366941;19;20010;-62
2023/06/23 08:01:53;;;;;;;13.70;3.78;;;;;;;24.05;70.12;101924.56;7368030;19;20022;-61
2023/06/23 08:04:22;;;;;;;9.98;3.33;;;;;;;24.09;69.91;101926.59;7366673;19;20019;-61
2023/06/23 08:06:50;;;;;;;6.63;3.85;;;;;;;24.05;68.34;101920.00;7369595;19;20497;-60
2023/06/23 08:09:18;;;;;;;6.43;3.67;;;;;;;24.03;69.47;101921.25;7365709;19;20019;-61
2023/06/23 08:11:45;;;;;;;7.25;3.88;;;;;;;24.00;68.29;101914.44;7368156;19;20022;-62
2023/06/23 08:14:12;;;;;;;9.00;3.13;;;;;;;23.99;68.42;101915.47;7366127;19;20105;-62
2023/06/23 08:16:39;;;;;;;7.20;3.50;;;;;;;23.99;68.33;101914.66;7367260;19;20327;-61
2023/06/23 08:19:07;;;;;;;7.90;3.58;;;;;;;24.02;68.02;101916.94;7369602;19;20022;-60
2023/06/23 08:21:35;;;;;;;6.60;4.10;;;;;;;24.10;67.98;101930.13;7366323;19;20015;-61
2023/06/23 08:24:03;;;;;;;5.15;2.72;;;;;;;24.05;67.89;101917.31;7369157;19;20014;-61
2023/06/23 08:26:30;;;;;;;10.10;5.13;;;;;;;24.05;68.80;101919.19;7369188;19;20101;-61
2023/06/23 08:28:57;;;;;;;8.20;3.65;;;;;;;23.99;68.25;101918.16;7363301;19;20411;-61
2023/06/23 08:31:25;;;;;;;9.20;3.65;;;;;;;24.18;67.67;101916.44;7363768;19;20018;-61
2023/06/23 08:33:52;;;;;;;7.57;4.00;;;;;;;24.45;66.76;101928.69;7366869;19;20029;-61
2023/06/23 08:36:19;;;;;;;5.18;3.30;;;;;;;24.72;65.55;101923.97;7363884;19;20026;-61
2023/06/23 08:38:47;;;;;;;6.70;3.08;;;;;;;24.87;65.73;101921.78;7366304;19;20010;-61
2023/06/23 08:41:20;;;;;;;5.05;3.08;;;;;;;24.82;64.21;101916.22;7369394;19;20021;-61
2023/06/23 08:43:53;;;;;;;5.20;3.25;;;;;;;24.67;64.16;101916.53;7363918;19;20566;-61
2023/06/23 08:46:27;;;;;;;5.03;3.25;;;;;;;24.54;65.39;101908.53;7368276;19;20489;-61
2023/06/23 08:49:01;;;;;;;4.40;3.03;;;;;;;24.49;65.70;101918.31;7366714;19;20010;-59
2023/06/23 08:51:29;;;;;;;6.68;3.40;;;;;;;24.42;65.58;101918.38;7368576;19;20086;-62
2023/06/23 08:53:56;;;;;;;5.38;3.30;;;;;;;24.40;65.57;101925.00;7367474;19;20015;-60
2023/06/23 08:56:25;;;;;;;7.68;3.90;;;;;;;24.38;66.50;101929.81;7368996;19;20011;-61
2023/06/23 08:58:53;;;;;;;9.88;4.07;;;;;;;24.35;66.32;101928.34;7367679;19;20106;-61
2023/06/23 09:01:20;;;;;;;7.00;4.07;;;;;;;24.32;65.03;101927.97;7363045;19;21609;-62
2023/06/23 09:03:48;;;;;;;7.05;4.28;;;;;;;24.30;65.13;101922.78;7365688;19;20040;-61
2023/06/23 09:06:15;;;;;;;5.65;3.60;;;;;;;24.27;65.26;101924.06;7369835;19;21239;-62
2023/06/23 09:08:42;;;;;;;6.07;3.78;;;;;;;24.26;66.10;101919.72;7368887;19;20015;-60
2023/06/23 09:11:10;;;;;;;8.13;3.35;;;;;;;24.27;66.08;101917.84;7365111;19;20015;-60
2023/06/23 09:13:41;;;;;;;7.50;3.70;;;;;;;24.32;66.15;101914.50;7322409;19;20026;-60
2023/06/23 09:16:10;;;;;;;6.53;3.10;;;;;;;24.33;65.49;101919.66;7353796;19;20025;-64
2023/06/23 09:18:40;;;;;;;6.13;3.17;;;;;;;24.38;65.02;101927.91;7348593;19;20021;-61
2023/06/23 09:21:08;;;;;;;5.40;2.50;;;;;;;24.40;62.82;101930.41;7357897;19;20542;-61
2023/06/23 09:23:36;;;;;;;7.28;2.95;;;;;;;24.41;62.43;101929.34;7355247;19;20015;-60
2023/06/23 09:26:03;;;;;;;6.32;2.55;;;;;;;24.44;62.46;101920.84;7356472;19;20038;-63
2023/06/23 09:28:36;;;;;;;5.05;2.55;;;;;;;24.50;62.01;101920.81;7357278;19;20059;-60
2023/06/23 09:31:13;;;;;;;4.90;2.30;;;;;;;24.57;59.86;101920.75;7355072;19;20038;-61
2023/06/23 09:33:51;;;;;;;7.45;1.98;;;;;;;24.62;60.07;101918.25;7363760;19;20014;-61
2023/06/23 09:36:20;;;;;;;8.70;2.40;;;;;;;24.66;59.85;101922.13;7363434;19;20056;-61
2023/06/23 09:38:49;;;;;;;3.95;1.85;;;;;;;24.65;59.87;101917.78;7362423;19;20026;-61
2023/06/23 09:41:18;;;;;;;4.72;2.17;;;;;;;24.69;60.38;101925.22;7363501;19;20018;-62
2023/06/23 09:43:50;;;;;;;5.90;2.58;;;;;;;24.71;59.98;101919.63;7360490;19;20701;-61
2023/06/23 09:46:20;;;;;;;5.88;2.53;;;;;;;24.74;58.65;101924.53;7361166;19;20015;-62
2023/06/23 09:48:50;;;;;;;2.80;2.08;;;;;;;24.73;58.92;101924.78;7358835;19;20059;-61
2023/06/23 09:51:19;;;;;;;4.30;2.20;;;;;;;24.73;59.72;101928.31;7360241;19;20022;-62
2023/06/23 09:53:48;;;;;;;6.68;2.42;;;;;;;24.72;59.50;101934.72;7361779;19;20018;-60
2023/06/23 09:56:17;;;;;;;4.45;2.38;;;;;;;24.70;58.87;101936.81;7360498;19;20021;-61
2023/06/23 09:58:47;;;;;;;5.97;2.17;;;;;;;24.67;59.08;101934.56;7363480;19;20011;-61
2023/06/23 10:01:17;;;;;;;6.10;2.70;;;;;;;24.65;59.31;101933.94;7364068;19;20010;-61
2023/06/23 10:03:50;;;;;;;4.22;2.35;;;;;;;24.64;59.79;101934.97;7364319;19;21059;-61
2023/06/23 10:06:28;;;;;;;5.78;1.85;;;;;;;24.67;60.16;101938.09;7361913;19;20025;-62
2023/06/23 10:08:58;;;;;;;3.30;2.05;;;;;;;24.65;58.88;101937.47;7363213;19;20086;-60
2023/06/23 10:11:33;;;;;;;4.43;2.85;;;;;;;24.69;59.18;101940.53;7362351;19;20375;-62
2023/06/23 10:14:05;;;;;;;6.78;2.15;;;;;;;24.69;59.97;101929.75;7361862;19;20618;-61
2023/06/23 10:16:35;;;;;;;4.68;2.63;;;;;;;24.73;60.10;101931.00;7363929;19;20018;-61
2023/06/23 10:19:04;;;;;;;5.68;2.60;;;;;;;24.79;59.23;101935.47;7361399;19;20022;-61
2023/06/23 10:21:32;;;;;;;4.93;2.53;;;;;;;24.86;59.45;101933.56;7362625;19;20021;-61
2023/06/23 10:24:04;;;;;;;4.03;2.40;;;;;;;24.92;59.13;101940.00;7364296;19;20809;-61
2023/06/23 10:26:34;;;;;;;3.97;2.42;;;;;;;24.93;58.86;101934.38;7364959;19;21093;-61
2023/06/23 10:29:06;;;;;;;6.97;2.40;;;;;;;24.93;59.48;101945.16;7361553;19;20022;-61
2023/06/23 10:31:36;;;;;;;5.05;2.20;;;;;;;24.92;58.51;101938.13;7360083;19;20026;-61
2023/06/23 10:34:05;;;;;;;4.25;2.05;;;;;;;24.92;58.47;101942.69;7363423;19;20538;-61
2023/06/23 10:36:38;;;;;;;4.97;1.90;;;;;;;24.92;58.39;101930.03;7365661;19;20424;-63
2023/06/23 10:39:07;;;;;;;5.05;2.00;;;;;;;24.92;57.89;101940.81;7365360;19;20024;-61
2023/06/23 10:41:38;;;;;;;3.85;2.15;;;;;;;24.95;58.41;101932.28;7365077;19;20021;-61
2023/06/23 10:44:08;;;;;;;5.15;2.05;;;;;;;24.99;57.28;101938.88;7361853;19;20463;-61
2023/06/23 10:46:36;;;;;;;6.28;1.92;;;;;;;25.02;57.02;101932.22;7363625;19;21885;-62
2023/06/23 10:49:05;;;;;;;6.43;1.75;;;;;;;25.01;57.51;101931.41;7363123;19;20018;-60
2023/06/23 10:51:34;;;;;;;5.63;1.73;;;;;;;24.98;56.51;101931.84;7364558;19;20033;-60
2023/06/23 10:54:07;;;;;;;4.55;1.63;;;;;;;25.02;56.87;101934.94;7360529;19;20009;-61
2023/06/23 10:56:39;;;;;;;6.35;1.80;;;;;;;25.06;55.18;101936.94;7360743;19;21724;-60
2023/06/23 10:59:21;;;;;;;3.70;1.30;;;;;;;25.06;54.57;101936.13;7360058;19;20097;-61
2023/06/23 11:02:01;;;;;;;2.70;1.45;;;;;;;25.10;55.13;101935.47;7360399;19;20720;-62
2023/06/23 11:04:30;;;;;;;3.97;1.70;;;;;;;25.13;53.62;101937.72;7321262;19;20059;-60
2023/06/23 11:07:02;;;;;;;4.28;1.50;;;;;;;25.13;54.36;101929.66;7337048;19;20703;-66
2023/06/23 11:09:45;;;;;;;5.28;1.80;;;;;;;25.14;54.72;101938.56;7355076;19;20024;-61
2023/06/23 11:12:32;;;;;;;4.28;1.42;;;;;;;25.13;53.89;101942.28;7333986;19;20372;-61
2023/06/23 11:15:04;;;;;;;7.55;1.80;;;;;;;25.11;55.05;101942.50;7343710;19;20015;-60
2023/06/23 11:17:40;;;;;;;3.30;1.58;;;;;;;25.14;54.90;101933.97;7354282;19;21682;-60
2023/06/23 11:20:22;;;;;;;2.63;1.35;;;;;;;25.20;53.93;101947.59;7352796;19;20029;-61
2023/06/23 11:23:02;;;;;;;3.47;1.73;;;;;;;25.27;55.39;101941.09;7357578;19;20010;-60
2023/06/23 11:25:32;;;;;;;3.85;1.95;;;;;;;25.31;55.55;101930.69;7351425;19;20367;-61
2023/06/23 11:28:20;;;;;;;5.95;2.25;;;;;;;25.32;55.52;101935.06;7349479;19;20022;-60
2023/06/23 11:31:08;;;;;;;5.63;2.22;;;;;;;25.39;55.77;101943.91;7354628;19;20126;-61
2023/06/23 11:33:38;;;;;;;3.22;1.98;;;;;;;25.48;56.20;101942.56;7347908;19;20029;-61
2023/06/23 11:36:09;;;;;;;5.95;2.45;;;;;;;25.53;56.03;101942.72;7359955;19;20019;-61
2023/06/23 11:38:40;;;;;;;3.63;2.13;;;;;;;25.54;55.92;101939.78;7355821;19;20014;-61
2023/06/23 11:41:08;;;;;;;4.07;2.00;;;;;;;25.53;55.78;101940.00;7357524;19;20363;-61